Aérodrome :
LOGIN :

S'inscrire | Disclaimer

   EN    FR    IT 

 










Légende :    VFR   VFR Marginal   IFR   IFR Intensif   IFR Très Intensif
Visi : 
Plafond : 
>= 8 km
>= 3000ft
5 à 8 km
1000 à 3000 ft
1500m à 5 km
500 à 1000 ft
800 à 1500m
200 à 500 ft
< 800m
< 200 ft
Symboles :   Orages  Brouillard  Fortes neiges  Fortes précipitations  Vent > 20 kt
SIGMETs :   Divers  Orages  Givrage  Turbulence  Onde Orograph.  Cendres Volcan.







- Altitude de l'aérodrome : 75 ft
- Code IATA : MRH


EGYM - RAF Marham

DERNIER METAR :
  • 150950Z 02014KT 6000 -RA BKN006 12/12 Q1011 YLO1 TEMPO 3000 RADZ BKN004 YLO2

METARs EXPIRÉS :
  • 150850Z 01010KT 5000 RA OVC005 12/12 Q1011 YLO1 TEMPO 3000 RADZ BKN004 YLO2
  • 150750Z 01009KT 5000 -RADZ OVC005 12/12 Q1010 YLO1 TEMPO 3000 RADZ BKN004 YLO2

TAF TAF EGYM
Valide du 15 à 09h jusqu'au 15 à 21h UTC


150736Z 1509/1521 03012KT 9999 BKN008
TEMPO 1509/1515 4000 RADZ SCT005
PROB30
TEMPO 1509/1514 2000 DZ BR SCT003
Pas de NOTAMs connus pour ce terrain.
2 SIGMETs publiés pour la FIR London (EGTT) :
 
Annulation du SIGMET 02
EGTT SIGMET 03 VALID 150705/151100 EGRR
EGTT LONDON FIR CNL SIGMET 02 150700/151100=
SIGMET 02  ANNULÉ :
Orages noyés dans la masse
EGTT SIGMET 02 VALID 150700/151100 EGRR
EGTT LONDON FIR EMBD TS FCST WI N5427 E00255 - N5135 E00126 - N5103 W00016 - N5236 W00022 - N5427 E00255 TOP FL280 MOV NE 10KT WKN=



MET'MAP, la Météo Aéronautique d'un coup d'oeil ! - Copyright ORBIFLY Décembre 2007 - Disclaimer

ORBIFLY MET'MAP TEAM :

Programmation & Développement : Alexandra Zaïnal
Conception & Développement : Baudouin d'Aumeries
Co-Programmation & Développement : Marc-Olivier Méhu
Soutien technique & logistique : Manuel Goepfert

Contact : metmap@orbifly.com




SOURCES & CREDITS :

   NOAA